sensor_id;sensor_type;location;lat;lon;timestamp;temperature;humidity
22469;DHT22;11401;50.792;4.352;2023-05-07T00:01:38;19.80;63.30
22469;DHT22;11401;50.792;4.352;2023-05-07T00:04:05;19.80;63.30
22469;DHT22;11401;50.792;4.352;2023-05-07T00:06:34;19.80;63.40
22469;DHT22;11401;50.792;4.352;2023-05-07T00:09:02;19.80;63.50
22469;DHT22;11401;50.792;4.352;2023-05-07T00:11:29;19.80;63.40
22469;DHT22;11401;50.792;4.352;2023-05-07T00:13:56;19.80;63.40
22469;DHT22;11401;50.792;4.352;2023-05-07T00:16:23;19.80;63.60
22469;DHT22;11401;50.792;4.352;2023-05-07T00:18:50;19.90;63.80
22469;DHT22;11401;50.792;4.352;2023-05-07T00:21:17;19.80;63.80
22469;DHT22;11401;50.792;4.352;2023-05-07T00:23:44;19.90;63.90
22469;DHT22;11401;50.792;4.352;2023-05-07T00:26:11;19.90;63.90
22469;DHT22;11401;50.792;4.352;2023-05-07T00:28:40;19.90;63.80
22469;DHT22;11401;50.792;4.352;2023-05-07T00:31:08;19.90;63.80
22469;DHT22;11401;50.792;4.352;2023-05-07T00:33:35;20.00;63.80
22469;DHT22;11401;50.792;4.352;2023-05-07T00:36:03;20.00;63.70
22469;DHT22;11401;50.792;4.352;2023-05-07T00:38:30;20.00;63.60
22469;DHT22;11401;50.792;4.352;2023-05-07T00:40:57;20.10;63.60
22469;DHT22;11401;50.792;4.352;2023-05-07T00:43:24;20.10;63.60
22469;DHT22;11401;50.792;4.352;2023-05-07T00:45:51;20.10;63.60
22469;DHT22;11401;50.792;4.352;2023-05-07T00:48:19;20.10;63.50
22469;DHT22;11401;50.792;4.352;2023-05-07T00:50:46;20.20;63.60
22469;DHT22;11401;50.792;4.352;2023-05-07T00:53:14;20.20;63.60
22469;DHT22;11401;50.792;4.352;2023-05-07T00:55:41;20.20;63.60
22469;DHT22;11401;50.792;4.352;2023-05-07T00:58:09;20.10;63.30
22469;DHT22;11401;50.792;4.352;2023-05-07T01:00:36;20.20;63.20
22469;DHT22;11401;50.792;4.352;2023-05-07T01:03:03;20.20;63.50
22469;DHT22;11401;50.792;4.352;2023-05-07T01:05:32;20.20;63.60
22469;DHT22;11401;50.792;4.352;2023-05-07T01:08:01;20.20;63.70
22469;DHT22;11401;50.792;4.352;2023-05-07T01:10:29;20.20;63.50
22469;DHT22;11401;50.792;4.352;2023-05-07T01:12:58;20.30;63.60
22469;DHT22;11401;50.792;4.352;2023-05-07T01:15:27;20.20;63.40
22469;DHT22;11401;50.792;4.352;2023-05-07T01:17:56;20.30;63.50
22469;DHT22;11401;50.792;4.352;2023-05-07T01:20:32;20.30;63.70
22469;DHT22;11401;50.792;4.352;2023-05-07T01:23:00;20.30;63.70
22469;DHT22;11401;50.792;4.352;2023-05-07T01:25:28;20.30;63.70
22469;DHT22;11401;50.792;4.352;2023-05-07T01:27:59;20.30;64.50
22469;DHT22;11401;50.792;4.352;2023-05-07T01:30:31;20.20;63.80
22469;DHT22;11401;50.792;4.352;2023-05-07T01:33:09;20.20;63.60
22469;DHT22;11401;50.792;4.352;2023-05-07T01:38:58;20.30;63.90
22469;DHT22;11401;50.792;4.352;2023-05-07T01:41:26;20.20;63.90
22469;DHT22;11401;50.792;4.352;2023-05-07T01:43:54;20.20;63.80
22469;DHT22;11401;50.792;4.352;2023-05-07T01:46:22;20.20;63.80
22469;DHT22;11401;50.792;4.352;2023-05-07T01:48:49;20.20;63.80
22469;DHT22;11401;50.792;4.352;2023-05-07T01:51:17;20.20;63.50
22469;DHT22;11401;50.792;4.352;2023-05-07T01:53:44;20.30;63.20
22469;DHT22;11401;50.792;4.352;2023-05-07T01:56:12;20.30;62.90
22469;DHT22;11401;50.792;4.352;2023-05-07T01:58:41;20.30;62.80
22469;DHT22;11401;50.792;4.352;2023-05-07T02:01:08;20.20;62.70
22469;DHT22;11401;50.792;4.352;2023-05-07T02:03:35;20.20;62.70
22469;DHT22;11401;50.792;4.352;2023-05-07T02:06:10;20.20;62.80
22469;DHT22;11401;50.792;4.352;2023-05-07T02:08:39;20.10;62.70
22469;DHT22;11401;50.792;4.352;2023-05-07T02:11:06;20.10;62.80
22469;DHT22;11401;50.792;4.352;2023-05-07T02:13:34;20.10;62.80
22469;DHT22;11401;50.792;4.352;2023-05-07T02:16:02;20.10;62.90
22469;DHT22;11401;50.792;4.352;2023-05-07T02:18:29;20.10;62.80
22469;DHT22;11401;50.792;4.352;2023-05-07T02:20:56;20.10;62.80
22469;DHT22;11401;50.792;4.352;2023-05-07T02:23:23;20.00;62.80
22469;DHT22;11401;50.792;4.352;2023-05-07T02:25:51;20.00;62.70
22469;DHT22;11401;50.792;4.352;2023-05-07T02:28:18;20.00;62.60
22469;DHT22;11401;50.792;4.352;2023-05-07T02:31:05;20.00;62.60
22469;DHT22;11401;50.792;4.352;2023-05-07T02:33:33;19.90;62.70
22469;DHT22;11401;50.792;4.352;2023-05-07T02:36:11;19.90;62.80
22469;DHT22;11401;50.792;4.352;2023-05-07T02:38:47;19.90;62.80
22469;DHT22;11401;50.792;4.352;2023-05-07T02:41:14;19.90;62.80
22469;DHT22;11401;50.792;4.352;2023-05-07T02:43:41;19.80;62.70
22469;DHT22;11401;50.792;4.352;2023-05-07T02:46:09;19.80;62.80
22469;DHT22;11401;50.792;4.352;2023-05-07T02:48:40;19.80;62.90
22469;DHT22;11401;50.792;4.352;2023-05-07T02:51:07;19.70;62.80
22469;DHT22;11401;50.792;4.352;2023-05-07T02:53:36;19.70;62.80
22469;DHT22;11401;50.792;4.352;2023-05-07T02:56:03;19.70;62.90
22469;DHT22;11401;50.792;4.352;2023-05-07T02:58:30;19.70;62.80
22469;DHT22;11401;50.792;4.352;2023-05-07T03:00:59;19.70;62.80
22469;DHT22;11401;50.792;4.352;2023-05-07T03:03:49;19.70;62.80
22469;DHT22;11401;50.792;4.352;2023-05-07T03:06:16;19.70;62.90
22469;DHT22;11401;50.792;4.352;2023-05-07T03:08:43;19.70;62.90
22469;DHT22;11401;50.792;4.352;2023-05-07T03:11:10;19.60;62.90
22469;DHT22;11401;50.792;4.352;2023-05-07T03:13:37;19.60;62.90
22469;DHT22;11401;50.792;4.352;2023-05-07T03:16:04;19.60;62.90
22469;DHT22;11401;50.792;4.352;2023-05-07T03:18:32;19.60;63.00
22469;DHT22;11401;50.792;4.352;2023-05-07T03:20:59;19.60;63.10
22469;DHT22;11401;50.792;4.352;2023-05-07T03:23:26;19.70;63.10
22469;DHT22;11401;50.792;4.352;2023-05-07T03:25:53;19.60;63.00
22469;DHT22;11401;50.792;4.352;2023-05-07T03:28:20;19.70;63.00
22469;DHT22;11401;50.792;4.352;2023-05-07T03:30:56;19.70;63.00
22469;DHT22;11401;50.792;4.352;2023-05-07T03:33:23;19.60;62.90
22469;DHT22;11401;50.792;4.352;2023-05-07T03:35:50;19.60;63.00
22469;DHT22;11401;50.792;4.352;2023-05-07T03:38:22;19.70;62.90
22469;DHT22;11401;50.792;4.352;2023-05-07T03:40:49;19.60;62.90
22469;DHT22;11401;50.792;4.352;2023-05-07T03:43:17;19.70;63.00
22469;DHT22;11401;50.792;4.352;2023-05-07T03:45:49;19.60;63.00
22469;DHT22;11401;50.792;4.352;2023-05-07T03:48:21;19.60;63.00
22469;DHT22;11401;50.792;4.352;2023-05-07T03:50:50;19.60;63.10
22469;DHT22;11401;50.792;4.352;2023-05-07T03:53:19;19.60;63.10
22469;DHT22;11401;50.792;4.352;2023-05-07T03:55:46;19.60;63.10
22469;DHT22;11401;50.792;4.352;2023-05-07T03:58:13;19.60;63.10
22469;DHT22;11401;50.792;4.352;2023-05-07T04:00:40;19.60;63.10
22469;DHT22;11401;50.792;4.352;2023-05-07T04:03:25;19.60;63.20
22469;DHT22;11401;50.792;4.352;2023-05-07T04:05:53;19.60;63.20
22469;DHT22;11401;50.792;4.352;2023-05-07T04:08:20;19.70;63.20
22469;DHT22;11401;50.792;4.352;2023-05-07T04:10:56;19.70;63.20
22469;DHT22;11401;50.792;4.352;2023-05-07T04:13:25;19.70;63.10
22469;DHT22;11401;50.792;4.352;2023-05-07T04:15:54;19.60;63.10
22469;DHT22;11401;50.792;4.352;2023-05-07T04:18:23;19.60;63.10
22469;DHT22;11401;50.792;4.352;2023-05-07T04:20:51;19.60;63.20
22469;DHT22;11401;50.792;4.352;2023-05-07T04:23:18;19.60;63.20
22469;DHT22;11401;50.792;4.352;2023-05-07T04:25:45;19.60;63.40
22469;DHT22;11401;50.792;4.352;2023-05-07T04:28:44;19.60;64.10
22469;DHT22;11401;50.792;4.352;2023-05-07T04:31:12;19.60;63.50
22469;DHT22;11401;50.792;4.352;2023-05-07T04:33:40;19.60;63.50
22469;DHT22;11401;50.792;4.352;2023-05-07T04:36:10;19.60;63.50
22469;DHT22;11401;50.792;4.352;2023-05-07T04:38:45;19.60;63.50
22469;DHT22;11401;50.792;4.352;2023-05-07T04:41:13;19.60;63.60
22469;DHT22;11401;50.792;4.352;2023-05-07T04:43:41;19.60;63.60
22469;DHT22;11401;50.792;4.352;2023-05-07T04:46:09;19.50;63.60
22469;DHT22;11401;50.792;4.352;2023-05-07T04:48:37;19.60;63.70
22469;DHT22;11401;50.792;4.352;2023-05-07T04:51:05;19.60;63.70
22469;DHT22;11401;50.792;4.352;2023-05-07T04:53:33;19.60;63.70
22469;DHT22;11401;50.792;4.352;2023-05-07T04:56:00;19.60;63.70
22469;DHT22;11401;50.792;4.352;2023-05-07T04:58:33;19.50;63.60
22469;DHT22;11401;50.792;4.352;2023-05-07T05:01:00;19.50;63.70
22469;DHT22;11401;50.792;4.352;2023-05-07T05:03:28;19.60;63.80
22469;DHT22;11401;50.792;4.352;2023-05-07T05:05:57;19.60;63.80
22469;DHT22;11401;50.792;4.352;2023-05-07T05:08:30;19.60;63.90
22469;DHT22;11401;50.792;4.352;2023-05-07T05:11:00;19.60;63.90
22469;DHT22;11401;50.792;4.352;2023-05-07T05:13:27;19.60;63.90
22469;DHT22;11401;50.792;4.352;2023-05-07T05:15:54;19.60;63.90
22469;DHT22;11401;50.792;4.352;2023-05-07T05:18:24;19.60;63.80
22469;DHT22;11401;50.792;4.352;2023-05-07T05:20:51;19.60;63.70
22469;DHT22;11401;50.792;4.352;2023-05-07T05:23:19;19.60;63.80
22469;DHT22;11401;50.792;4.352;2023-05-07T05:25:47;19.60;63.80
22469;DHT22;11401;50.792;4.352;2023-05-07T05:28:15;19.60;63.80
22469;DHT22;11401;50.792;4.352;2023-05-07T05:30:42;19.60;63.80
22469;DHT22;11401;50.792;4.352;2023-05-07T05:33:09;19.70;63.90
22469;DHT22;11401;50.792;4.352;2023-05-07T05:35:36;19.70;63.90
22469;DHT22;11401;50.792;4.352;2023-05-07T05:38:08;19.70;63.90
22469;DHT22;11401;50.792;4.352;2023-05-07T05:40:35;19.60;63.90
22469;DHT22;11401;50.792;4.352;2023-05-07T05:43:02;19.60;64.00
22469;DHT22;11401;50.792;4.352;2023-05-07T05:45:30;19.70;64.10
22469;DHT22;11401;50.792;4.352;2023-05-07T05:47:57;19.70;64.20
22469;DHT22;11401;50.792;4.352;2023-05-07T05:50:25;19.70;64.20
22469;DHT22;11401;50.792;4.352;2023-05-07T05:52:53;19.70;64.20
22469;DHT22;11401;50.792;4.352;2023-05-07T05:55:20;19.70;64.30
22469;DHT22;11401;50.792;4.352;2023-05-07T05:57:49;19.70;64.40
22469;DHT22;11401;50.792;4.352;2023-05-07T06:00:17;19.70;64.30
22469;DHT22;11401;50.792;4.352;2023-05-07T06:02:44;19.70;63.90
22469;DHT22;11401;50.792;4.352;2023-05-07T06:05:16;19.70;63.80
22469;DHT22;11401;50.792;4.352;2023-05-07T06:07:45;19.70;63.80
22469;DHT22;11401;50.792;4.352;2023-05-07T06:10:12;19.80;63.60
22469;DHT22;11401;50.792;4.352;2023-05-07T06:12:40;19.80;63.50
22469;DHT22;11401;50.792;4.352;2023-05-07T06:15:07;19.80;63.30
22469;DHT22;11401;50.792;4.352;2023-05-07T06:17:35;19.70;63.10
22469;DHT22;11401;50.792;4.352;2023-05-07T06:20:02;19.80;63.10
22469;DHT22;11401;50.792;4.352;2023-05-07T06:22:29;19.80;63.00
22469;DHT22;11401;50.792;4.352;2023-05-07T06:24:56;19.80;63.00
22469;DHT22;11401;50.792;4.352;2023-05-07T06:27:23;19.80;63.00
22469;DHT22;11401;50.792;4.352;2023-05-07T06:29:51;19.80;63.10
22469;DHT22;11401;50.792;4.352;2023-05-07T06:32:18;19.80;63.00
22469;DHT22;11401;50.792;4.352;2023-05-07T06:34:46;19.80;63.20
22469;DHT22;11401;50.792;4.352;2023-05-07T06:37:14;19.90;63.10
22469;DHT22;11401;50.792;4.352;2023-05-07T06:40:13;20.00;63.00
22469;DHT22;11401;50.792;4.352;2023-05-07T06:42:42;20.10;63.00
22469;DHT22;11401;50.792;4.352;2023-05-07T06:45:22;20.10;62.90
22469;DHT22;11401;50.792;4.352;2023-05-07T06:47:53;20.20;62.90
22469;DHT22;11401;50.792;4.352;2023-05-07T06:50:21;20.20;62.80
22469;DHT22;11401;50.792;4.352;2023-05-07T06:52:49;20.20;62.70
22469;DHT22;11401;50.792;4.352;2023-05-07T06:55:25;20.30;62.50
22469;DHT22;11401;50.792;4.352;2023-05-07T06:57:53;20.30;62.70
22469;DHT22;11401;50.792;4.352;2023-05-07T07:00:22;20.10;64.10
22469;DHT22;11401;50.792;4.352;2023-05-07T07:02:54;19.90;65.70
22469;DHT22;11401;50.792;4.352;2023-05-07T07:05:24;19.80;66.00
22469;DHT22;11401;50.792;4.352;2023-05-07T07:07:51;19.80;66.20
22469;DHT22;11401;50.792;4.352;2023-05-07T07:10:22;19.70;66.60
22469;DHT22;11401;50.792;4.352;2023-05-07T07:12:50;19.70;67.10
22469;DHT22;11401;50.792;4.352;2023-05-07T07:15:20;19.60;67.20
22469;DHT22;11401;50.792;4.352;2023-05-07T07:17:48;19.70;67.70
22469;DHT22;11401;50.792;4.352;2023-05-07T07:20:16;19.60;67.90
22469;DHT22;11401;50.792;4.352;2023-05-07T07:22:44;19.60;68.20
22469;DHT22;11401;50.792;4.352;2023-05-07T07:25:12;19.60;68.40
22469;DHT22;11401;50.792;4.352;2023-05-07T07:27:39;19.60;68.60
22469;DHT22;11401;50.792;4.352;2023-05-07T07:30:07;19.60;68.80
22469;DHT22;11401;50.792;4.352;2023-05-07T07:32:38;19.50;68.90
22469;DHT22;11401;50.792;4.352;2023-05-07T07:35:05;19.50;69.00
22469;DHT22;11401;50.792;4.352;2023-05-07T07:37:33;19.50;69.20
22469;DHT22;11401;50.792;4.352;2023-05-07T07:40:00;19.60;69.70
22469;DHT22;11401;50.792;4.352;2023-05-07T07:42:27;19.50;69.60
22469;DHT22;11401;50.792;4.352;2023-05-07T07:44:57;19.50;69.60
22469;DHT22;11401;50.792;4.352;2023-05-07T07:47:27;19.50;69.50
22469;DHT22;11401;50.792;4.352;2023-05-07T07:49:54;19.50;69.70
22469;DHT22;11401;50.792;4.352;2023-05-07T07:52:22;19.50;69.80
22469;DHT22;11401;50.792;4.352;2023-05-07T07:54:49;19.50;69.80
22469;DHT22;11401;50.792;4.352;2023-05-07T07:57:16;19.50;70.10
22469;DHT22;11401;50.792;4.352;2023-05-07T07:59:43;19.40;71.20
22469;DHT22;11401;50.792;4.352;2023-05-07T08:02:12;19.50;70.70
22469;DHT22;11401;50.792;4.352;2023-05-07T08:04:40;19.50;70.70
22469;DHT22;11401;50.792;4.352;2023-05-07T08:07:07;19.50;70.70
22469;DHT22;11401;50.792;4.352;2023-05-07T08:09:39;19.40;70.60
22469;DHT22;11401;50.792;4.352;2023-05-07T08:12:07;19.50;70.70
22469;DHT22;11401;50.792;4.352;2023-05-07T08:14:34;19.50;70.60
22469;DHT22;11401;50.792;4.352;2023-05-07T08:17:05;19.60;70.70
22469;DHT22;11401;50.792;4.352;2023-05-07T08:19:33;19.60;70.90
22469;DHT22;11401;50.792;4.352;2023-05-07T08:22:03;19.60;70.90
22469;DHT22;11401;50.792;4.352;2023-05-07T08:24:32;19.60;70.70
22469;DHT22;11401;50.792;4.352;2023-05-07T08:27:00;19.60;71.10
22469;DHT22;11401;50.792;4.352;2023-05-07T08:29:27;19.60;71.00
22469;DHT22;11401;50.792;4.352;2023-05-07T08:31:54;19.70;71.00
22469;DHT22;11401;50.792;4.352;2023-05-07T08:34:22;19.70;70.90
22469;DHT22;11401;50.792;4.352;2023-05-07T08:36:51;19.70;70.90
22469;DHT22;11401;50.792;4.352;2023-05-07T08:39:22;19.70;71.10
22469;DHT22;11401;50.792;4.352;2023-05-07T08:41:55;19.70;70.90
22469;DHT22;11401;50.792;4.352;2023-05-07T08:44:27;19.70;70.90
22469;DHT22;11401;50.792;4.352;2023-05-07T08:46:56;19.60;70.80
22469;DHT22;11401;50.792;4.352;2023-05-07T08:49:25;19.60;71.30
22469;DHT22;11401;50.792;4.352;2023-05-07T08:51:53;19.60;71.30
22469;DHT22;11401;50.792;4.352;2023-05-07T08:54:21;19.60;71.40
22469;DHT22;11401;50.792;4.352;2023-05-07T08:56:48;19.70;71.50
22469;DHT22;11401;50.792;4.352;2023-05-07T08:59:15;19.70;71.60
22469;DHT22;11401;50.792;4.352;2023-05-07T09:01:44;19.60;71.70
22469;DHT22;11401;50.792;4.352;2023-05-07T09:04:12;19.70;71.60
22469;DHT22;11401;50.792;4.352;2023-05-07T09:06:40;19.70;71.70
22469;DHT22;11401;50.792;4.352;2023-05-07T09:09:14;19.70;71.70
22469;DHT22;11401;50.792;4.352;2023-05-07T09:11:44;19.80;71.80
22469;DHT22;11401;50.792;4.352;2023-05-07T09:14:13;19.80;72.40
22469;DHT22;11401;50.792;4.352;2023-05-07T09:16:43;19.80;71.40
22469;DHT22;11401;50.792;4.352;2023-05-07T09:19:10;19.80;71.20
22469;DHT22;11401;50.792;4.352;2023-05-07T09:21:44;19.70;71.20
22469;DHT22;11401;50.792;4.352;2023-05-07T09:24:12;19.70;71.40
22469;DHT22;11401;50.792;4.352;2023-05-07T09:26:42;19.70;71.10
22469;DHT22;11401;50.792;4.352;2023-05-07T09:29:10;19.70;71.60
22469;DHT22;11401;50.792;4.352;2023-05-07T09:31:38;19.80;71.80
22469;DHT22;11401;50.792;4.352;2023-05-07T09:34:09;19.80;71.90
22469;DHT22;11401;50.792;4.352;2023-05-07T09:36:39;19.90;72.10
22469;DHT22;11401;50.792;4.352;2023-05-07T09:39:07;19.80;72.10
22469;DHT22;11401;50.792;4.352;2023-05-07T09:41:43;19.80;72.30
22469;DHT22;11401;50.792;4.352;2023-05-07T09:44:21;19.80;72.30
22469;DHT22;11401;50.792;4.352;2023-05-07T09:46:54;19.80;72.50
22469;DHT22;11401;50.792;4.352;2023-05-07T09:49:29;19.90;72.50
22469;DHT22;11401;50.792;4.352;2023-05-07T09:52:05;19.90;72.40
22469;DHT22;11401;50.792;4.352;2023-05-07T09:54:43;20.00;72.30
22469;DHT22;11401;50.792;4.352;2023-05-07T09:57:13;19.90;72.30
22469;DHT22;11401;50.792;4.352;2023-05-07T09:59:46;19.90;72.30
22469;DHT22;11401;50.792;4.352;2023-05-07T10:02:18;19.90;72.40
22469;DHT22;11401;50.792;4.352;2023-05-07T10:04:50;19.90;72.40
22469;DHT22;11401;50.792;4.352;2023-05-07T10:07:22;19.90;72.50
22469;DHT22;11401;50.792;4.352;2023-05-07T10:09:54;20.00;72.50
22469;DHT22;11401;50.792;4.352;2023-05-07T10:12:29;20.00;72.60
22469;DHT22;11401;50.792;4.352;2023-05-07T10:14:57;20.00;72.70
22469;DHT22;11401;50.792;4.352;2023-05-07T10:17:25;20.10;72.50
22469;DHT22;11401;50.792;4.352;2023-05-07T10:19:53;20.10;72.10
22469;DHT22;11401;50.792;4.352;2023-05-07T10:22:22;20.20;71.90
22469;DHT22;11401;50.792;4.352;2023-05-07T10:24:52;20.20;71.80
22469;DHT22;11401;50.792;4.352;2023-05-07T10:27:22;20.20;71.90
22469;DHT22;11401;50.792;4.352;2023-05-07T10:32:49;20.20;71.90
22469;DHT22;11401;50.792;4.352;2023-05-07T10:35:30;20.20;71.90
22469;DHT22;11401;50.792;4.352;2023-05-07T10:38:02;20.20;72.00
22469;DHT22;11401;50.792;4.352;2023-05-07T10:40:32;20.10;72.00
22469;DHT22;11401;50.792;4.352;2023-05-07T10:43:02;20.20;72.20
22469;DHT22;11401;50.792;4.352;2023-05-07T10:45:43;20.20;72.10
22469;DHT22;11401;50.792;4.352;2023-05-07T10:48:15;20.10;72.20
22469;DHT22;11401;50.792;4.352;2023-05-07T10:51:18;20.10;72.10
22469;DHT22;11401;50.792;4.352;2023-05-07T10:56:42;20.20;72.20
22469;DHT22;11401;50.792;4.352;2023-05-07T11:02:05;20.20;71.90
22469;DHT22;11401;50.792;4.352;2023-05-07T11:05:18;20.30;71.50
22469;DHT22;11401;50.792;4.352;2023-05-07T11:08:00;20.30;71.40
22469;DHT22;11401;50.792;4.352;2023-05-07T11:10:53;20.30;71.40
22469;DHT22;11401;50.792;4.352;2023-05-07T11:16:44;20.30;71.30
22469;DHT22;11401;50.792;4.352;2023-05-07T11:19:54;20.30;71.20
22469;DHT22;11401;50.792;4.352;2023-05-07T11:25:18;20.30;71.20
22469;DHT22;11401;50.792;4.352;2023-05-07T11:27:51;20.40;71.20
22469;DHT22;11401;50.792;4.352;2023-05-07T11:30:19;20.40;70.80
22469;DHT22;11401;50.792;4.352;2023-05-07T11:32:48;20.30;71.20
22469;DHT22;11401;50.792;4.352;2023-05-07T11:35:16;20.30;71.00
22469;DHT22;11401;50.792;4.352;2023-05-07T11:37:46;20.40;70.50
22469;DHT22;11401;50.792;4.352;2023-05-07T11:40:15;20.40;70.30
22469;DHT22;11401;50.792;4.352;2023-05-07T11:42:42;20.40;70.50
22469;DHT22;11401;50.792;4.352;2023-05-07T11:45:10;20.50;69.60
22469;DHT22;11401;50.792;4.352;2023-05-07T11:47:38;20.50;69.20
22469;DHT22;11401;50.792;4.352;2023-05-07T11:50:08;20.50;70.10
22469;DHT22;11401;50.792;4.352;2023-05-07T11:52:37;20.50;69.80
22469;DHT22;11401;50.792;4.352;2023-05-07T11:55:07;20.50;68.80
22469;DHT22;11401;50.792;4.352;2023-05-07T11:57:35;20.60;67.90
22469;DHT22;11401;50.792;4.352;2023-05-07T12:00:02;20.60;68.70
22469;DHT22;11401;50.792;4.352;2023-05-07T12:02:40;20.60;68.60
22469;DHT22;11401;50.792;4.352;2023-05-07T12:05:09;20.60;69.20
22469;DHT22;11401;50.792;4.352;2023-05-07T12:07:36;20.60;68.80
22469;DHT22;11401;50.792;4.352;2023-05-07T12:10:05;20.70;68.50
22469;DHT22;11401;50.792;4.352;2023-05-07T12:12:38;20.70;67.60
22469;DHT22;11401;50.792;4.352;2023-05-07T12:15:08;20.70;68.10
22469;DHT22;11401;50.792;4.352;2023-05-07T12:17:36;20.70;68.10
22469;DHT22;11401;50.792;4.352;2023-05-07T12:20:04;20.70;67.80
22469;DHT22;11401;50.792;4.352;2023-05-07T12:22:31;20.70;68.40
22469;DHT22;11401;50.792;4.352;2023-05-07T12:24:59;20.70;68.60
22469;DHT22;11401;50.792;4.352;2023-05-07T12:27:26;20.70;67.60
22469;DHT22;11401;50.792;4.352;2023-05-07T12:29:53;20.70;68.20
22469;DHT22;11401;50.792;4.352;2023-05-07T12:32:21;20.80;67.70
22469;DHT22;11401;50.792;4.352;2023-05-07T12:34:52;20.80;67.10
22469;DHT22;11401;50.792;4.352;2023-05-07T12:37:25;20.80;67.10
22469;DHT22;11401;50.792;4.352;2023-05-07T12:40:09;20.80;66.90
22469;DHT22;11401;50.792;4.352;2023-05-07T12:42:37;20.90;67.10
22469;DHT22;11401;50.792;4.352;2023-05-07T12:45:11;20.80;66.90
22469;DHT22;11401;50.792;4.352;2023-05-07T12:47:46;20.80;66.90
22469;DHT22;11401;50.792;4.352;2023-05-07T12:50:15;20.80;67.50
22469;DHT22;11401;50.792;4.352;2023-05-07T12:52:48;20.80;67.00
22469;DHT22;11401;50.792;4.352;2023-05-07T12:55:16;20.80;66.90
22469;DHT22;11401;50.792;4.352;2023-05-07T12:57:47;20.80;67.50
22469;DHT22;11401;50.792;4.352;2023-05-07T13:00:15;20.90;66.50
22469;DHT22;11401;50.792;4.352;2023-05-07T13:02:44;20.80;68.70
22469;DHT22;11401;50.792;4.352;2023-05-07T13:05:12;20.70;70.00
22469;DHT22;11401;50.792;4.352;2023-05-07T13:07:40;20.60;70.60
22469;DHT22;11401;50.792;4.352;2023-05-07T13:10:08;20.60;71.10
22469;DHT22;11401;50.792;4.352;2023-05-07T13:12:35;20.60;71.20
22469;DHT22;11401;50.792;4.352;2023-05-07T13:15:03;20.60;71.30
22469;DHT22;11401;50.792;4.352;2023-05-07T13:17:30;20.60;70.70
22469;DHT22;11401;50.792;4.352;2023-05-07T13:19:58;20.60;70.20
22469;DHT22;11401;50.792;4.352;2023-05-07T13:22:25;20.70;69.70
22469;DHT22;11401;50.792;4.352;2023-05-07T13:24:52;20.70;69.80
22469;DHT22;11401;50.792;4.352;2023-05-07T13:27:20;20.70;70.40
22469;DHT22;11401;50.792;4.352;2023-05-07T13:29:47;20.70;70.60
22469;DHT22;11401;50.792;4.352;2023-05-07T13:32:14;20.70;71.00
22469;DHT22;11401;50.792;4.352;2023-05-07T13:34:41;20.70;71.20
22469;DHT22;11401;50.792;4.352;2023-05-07T13:37:08;20.60;71.10
22469;DHT22;11401;50.792;4.352;2023-05-07T13:39:37;20.60;71.10
22469;DHT22;11401;50.792;4.352;2023-05-07T13:42:04;20.60;71.30
22469;DHT22;11401;50.792;4.352;2023-05-07T13:44:31;20.60;71.30
22469;DHT22;11401;50.792;4.352;2023-05-07T13:46:58;20.60;71.10
22469;DHT22;11401;50.792;4.352;2023-05-07T13:49:25;20.60;71.70
22469;DHT22;11401;50.792;4.352;2023-05-07T13:51:52;20.60;71.90
22469;DHT22;11401;50.792;4.352;2023-05-07T13:54:19;20.60;72.20
22469;DHT22;11401;50.792;4.352;2023-05-07T13:56:46;20.60;72.30
22469;DHT22;11401;50.792;4.352;2023-05-07T13:59:14;20.60;72.50
22469;DHT22;11401;50.792;4.352;2023-05-07T14:01:41;20.70;72.40
22469;DHT22;11401;50.792;4.352;2023-05-07T14:04:08;20.70;72.50
22469;DHT22;11401;50.792;4.352;2023-05-07T14:06:35;20.70;72.60
22469;DHT22;11401;50.792;4.352;2023-05-07T14:09:02;20.70;72.90
22469;DHT22;11401;50.792;4.352;2023-05-07T14:11:29;20.70;72.60
22469;DHT22;11401;50.792;4.352;2023-05-07T14:13:59;20.70;72.10
22469;DHT22;11401;50.792;4.352;2023-05-07T14:16:26;20.70;71.80
22469;DHT22;11401;50.792;4.352;2023-05-07T14:18:53;20.70;71.80
22469;DHT22;11401;50.792;4.352;2023-05-07T14:21:24;20.80;72.00
22469;DHT22;11401;50.792;4.352;2023-05-07T14:23:51;20.70;71.30
22469;DHT22;11401;50.792;4.352;2023-05-07T14:26:18;20.80;71.40
22469;DHT22;11401;50.792;4.352;2023-05-07T14:28:45;20.70;71.80
22469;DHT22;11401;50.792;4.352;2023-05-07T14:31:13;20.70;71.70
22469;DHT22;11401;50.792;4.352;2023-05-07T14:33:40;20.80;71.70
22469;DHT22;11401;50.792;4.352;2023-05-07T14:36:08;20.70;71.40
22469;DHT22;11401;50.792;4.352;2023-05-07T14:38:35;20.70;71.40
22469;DHT22;11401;50.792;4.352;2023-05-07T14:41:02;20.70;71.20
22469;DHT22;11401;50.792;4.352;2023-05-07T14:43:29;20.80;70.70
22469;DHT22;11401;50.792;4.352;2023-05-07T14:45:56;20.80;70.80
22469;DHT22;11401;50.792;4.352;2023-05-07T14:48:23;20.80;70.90
22469;DHT22;11401;50.792;4.352;2023-05-07T14:50:50;20.80;70.80
22469;DHT22;11401;50.792;4.352;2023-05-07T14:53:18;20.80;70.50
22469;DHT22;11401;50.792;4.352;2023-05-07T14:55:45;20.80;70.50
22469;DHT22;11401;50.792;4.352;2023-05-07T14:58:12;20.80;69.90
22469;DHT22;11401;50.792;4.352;2023-05-07T15:00:39;20.80;70.50
22469;DHT22;11401;50.792;4.352;2023-05-07T15:03:09;20.70;71.50
22469;DHT22;11401;50.792;4.352;2023-05-07T15:05:40;20.70;70.70
22469;DHT22;11401;50.792;4.352;2023-05-07T15:08:08;20.70;70.90
22469;DHT22;11401;50.792;4.352;2023-05-07T15:10:36;20.70;70.80
22469;DHT22;11401;50.792;4.352;2023-05-07T15:13:11;20.70;70.70
22469;DHT22;11401;50.792;4.352;2023-05-07T15:15:42;20.80;70.70
22469;DHT22;11401;50.792;4.352;2023-05-07T15:18:13;20.70;70.90
22469;DHT22;11401;50.792;4.352;2023-05-07T15:20:41;20.70;71.00
22469;DHT22;11401;50.792;4.352;2023-05-07T15:23:09;20.70;71.20
22469;DHT22;11401;50.792;4.352;2023-05-07T15:25:38;20.70;71.20
22469;DHT22;11401;50.792;4.352;2023-05-07T15:28:05;20.70;71.30
22469;DHT22;11401;50.792;4.352;2023-05-07T15:30:32;20.70;71.30
22469;DHT22;11401;50.792;4.352;2023-05-07T15:33:01;20.60;71.00
22469;DHT22;11401;50.792;4.352;2023-05-07T15:35:28;20.70;71.40
22469;DHT22;11401;50.792;4.352;2023-05-07T15:37:55;20.60;71.40
22469;DHT22;11401;50.792;4.352;2023-05-07T15:40:22;20.60;71.50
22469;DHT22;11401;50.792;4.352;2023-05-07T15:42:49;20.70;71.60
22469;DHT22;11401;50.792;4.352;2023-05-07T15:45:16;20.70;71.30
22469;DHT22;11401;50.792;4.352;2023-05-07T15:47:43;20.70;71.40
22469;DHT22;11401;50.792;4.352;2023-05-07T15:50:10;20.70;71.40
22469;DHT22;11401;50.792;4.352;2023-05-07T15:52:38;20.60;71.40
22469;DHT22;11401;50.792;4.352;2023-05-07T15:55:05;20.60;71.40
22469;DHT22;11401;50.792;4.352;2023-05-07T15:57:33;20.60;71.40
22469;DHT22;11401;50.792;4.352;2023-05-07T16:00:00;20.60;71.40
22469;DHT22;11401;50.792;4.352;2023-05-07T16:02:37;20.60;71.30